sensor_id;sensor_type;location;lat;lon;timestamp;P1;durP1;ratioP1;P2;durP2;ratioP2
75358;SDS011;64046;51.978;5.934;2024-03-08T00:02:37;29.42;;;15.38;;
75358;SDS011;64046;51.978;5.934;2024-03-08T00:05:07;31.30;;;17.35;;
75358;SDS011;64046;51.978;5.934;2024-03-08T00:07:38;31.95;;;14.95;;
75358;SDS011;64046;51.978;5.934;2024-03-08T00:10:09;29.63;;;16.25;;
75358;SDS011;64046;51.978;5.934;2024-03-08T00:12:40;30.95;;;16.80;;
75358;SDS011;64046;51.978;5.934;2024-03-08T00:15:13;26.83;;;14.32;;
75358;SDS011;64046;51.978;5.934;2024-03-08T00:17:44;30.42;;;16.05;;
75358;SDS011;64046;51.978;5.934;2024-03-08T00:20:14;28.02;;;15.23;;
75358;SDS011;64046;51.978;5.934;2024-03-08T00:22:43;31.45;;;15.70;;
75358;SDS011;64046;51.978;5.934;2024-03-08T00:25:13;32.13;;;17.00;;
75358;SDS011;64046;51.978;5.934;2024-03-08T00:27:42;29.05;;;16.10;;
75358;SDS011;64046;51.978;5.934;2024-03-08T00:30:14;28.05;;;14.07;;
75358;SDS011;64046;51.978;5.934;2024-03-08T00:32:44;29.25;;;16.48;;
75358;SDS011;64046;51.978;5.934;2024-03-08T00:35:13;26.05;;;14.77;;
75358;SDS011;64046;51.978;5.934;2024-03-08T00:37:42;26.10;;;15.02;;
75358;SDS011;64046;51.978;5.934;2024-03-08T00:40:12;31.27;;;16.50;;
75358;SDS011;64046;51.978;5.934;2024-03-08T00:42:42;34.47;;;16.00;;
75358;SDS011;64046;51.978;5.934;2024-03-08T00:45:14;28.25;;;14.63;;
75358;SDS011;64046;51.978;5.934;2024-03-08T00:47:44;27.83;;;15.18;;
75358;SDS011;64046;51.978;5.934;2024-03-08T00:50:13;29.83;;;14.15;;
75358;SDS011;64046;51.978;5.934;2024-03-08T00:52:43;28.75;;;15.15;;
75358;SDS011;64046;51.978;5.934;2024-03-08T00:55:13;34.03;;;15.85;;
75358;SDS011;64046;51.978;5.934;2024-03-08T00:57:43;29.48;;;14.38;;
75358;SDS011;64046;51.978;5.934;2024-03-08T01:00:15;28.92;;;15.95;;
75358;SDS011;64046;51.978;5.934;2024-03-08T01:02:46;25.23;;;14.50;;
75358;SDS011;64046;51.978;5.934;2024-03-08T01:05:15;26.05;;;14.13;;
75358;SDS011;64046;51.978;5.934;2024-03-08T01:07:45;24.48;;;14.20;;
75358;SDS011;64046;51.978;5.934;2024-03-08T01:10:16;25.80;;;15.30;;
75358;SDS011;64046;51.978;5.934;2024-03-08T01:12:46;28.58;;;15.95;;
75358;SDS011;64046;51.978;5.934;2024-03-08T01:15:18;25.27;;;13.95;;
75358;SDS011;64046;51.978;5.934;2024-03-08T01:17:47;25.48;;;14.95;;
75358;SDS011;64046;51.978;5.934;2024-03-08T01:20:17;25.45;;;14.20;;
75358;SDS011;64046;51.978;5.934;2024-03-08T01:22:47;28.33;;;15.63;;
75358;SDS011;64046;51.978;5.934;2024-03-08T01:25:16;24.45;;;14.32;;
75358;SDS011;64046;51.978;5.934;2024-03-08T01:27:45;26.15;;;14.25;;
75358;SDS011;64046;51.978;5.934;2024-03-08T01:30:15;23.02;;;13.75;;
75358;SDS011;64046;51.978;5.934;2024-03-08T01:32:47;27.67;;;14.43;;
75358;SDS011;64046;51.978;5.934;2024-03-08T01:35:16;29.52;;;15.13;;
75358;SDS011;64046;51.978;5.934;2024-03-08T01:37:48;24.75;;;14.10;;
75358;SDS011;64046;51.978;5.934;2024-03-08T01:40:18;24.02;;;13.27;;
75358;SDS011;64046;51.978;5.934;2024-03-08T01:42:47;23.88;;;14.35;;
75358;SDS011;64046;51.978;5.934;2024-03-08T01:45:19;24.10;;;14.63;;
75358;SDS011;64046;51.978;5.934;2024-03-08T01:47:49;23.40;;;13.35;;
75358;SDS011;64046;51.978;5.934;2024-03-08T01:50:18;27.77;;;14.52;;
75358;SDS011;64046;51.978;5.934;2024-03-08T01:52:48;27.17;;;15.82;;
75358;SDS011;64046;51.978;5.934;2024-03-08T01:55:17;27.30;;;15.13;;
75358;SDS011;64046;51.978;5.934;2024-03-08T01:57:47;23.15;;;14.25;;
75358;SDS011;64046;51.978;5.934;2024-03-08T02:00:17;23.35;;;13.90;;
75358;SDS011;64046;51.978;5.934;2024-03-08T02:02:53;25.25;;;14.18;;
75358;SDS011;64046;51.978;5.934;2024-03-08T02:05:23;27.13;;;15.07;;
75358;SDS011;64046;51.978;5.934;2024-03-08T02:07:52;27.33;;;15.27;;
75358;SDS011;64046;51.978;5.934;2024-03-08T02:10:22;24.92;;;13.65;;
75358;SDS011;64046;51.978;5.934;2024-03-08T02:12:52;26.58;;;15.63;;
75358;SDS011;64046;51.978;5.934;2024-03-08T02:15:24;28.48;;;15.38;;
75358;SDS011;64046;51.978;5.934;2024-03-08T02:17:53;25.25;;;16.15;;
75358;SDS011;64046;51.978;5.934;2024-03-08T02:20:23;24.67;;;13.93;;
75358;SDS011;64046;51.978;5.934;2024-03-08T02:22:55;26.50;;;15.73;;
75358;SDS011;64046;51.978;5.934;2024-03-08T02:25:24;28.42;;;15.73;;
75358;SDS011;64046;51.978;5.934;2024-03-08T02:27:54;28.42;;;16.42;;
75358;SDS011;64046;51.978;5.934;2024-03-08T02:30:24;20.80;;;13.18;;
75358;SDS011;64046;51.978;5.934;2024-03-08T02:32:55;27.58;;;17.42;;
75358;SDS011;64046;51.978;5.934;2024-03-08T02:35:25;24.52;;;15.88;;
75358;SDS011;64046;51.978;5.934;2024-03-08T02:37:57;21.98;;;13.52;;
75358;SDS011;64046;51.978;5.934;2024-03-08T02:40:26;25.48;;;14.55;;
75358;SDS011;64046;51.978;5.934;2024-03-08T02:42:56;28.17;;;14.93;;
75358;SDS011;64046;51.978;5.934;2024-03-08T02:45:25;27.75;;;13.95;;
75358;SDS011;64046;51.978;5.934;2024-03-08T02:47:55;27.00;;;15.48;;
75358;SDS011;64046;51.978;5.934;2024-03-08T02:50:25;23.88;;;13.85;;
75358;SDS011;64046;51.978;5.934;2024-03-08T02:52:57;28.05;;;15.10;;
75358;SDS011;64046;51.978;5.934;2024-03-08T02:55:26;23.02;;;13.57;;
75358;SDS011;64046;51.978;5.934;2024-03-08T02:57:55;22.00;;;14.50;;
75358;SDS011;64046;51.978;5.934;2024-03-08T03:00:25;24.23;;;14.32;;
75358;SDS011;64046;51.978;5.934;2024-03-08T03:02:56;25.95;;;14.15;;
75358;SDS011;64046;51.978;5.934;2024-03-08T03:05:29;23.33;;;14.63;;
75358;SDS011;64046;51.978;5.934;2024-03-08T03:08:02;25.33;;;14.88;;
75358;SDS011;64046;51.978;5.934;2024-03-08T03:10:34;22.13;;;14.35;;
75358;SDS011;64046;51.978;5.934;2024-03-08T03:13:04;21.17;;;13.68;;
75358;SDS011;64046;51.978;5.934;2024-03-08T03:15:34;30.23;;;16.27;;
75358;SDS011;64046;51.978;5.934;2024-03-08T03:18:01;24.35;;;14.77;;
75358;SDS011;64046;51.978;5.934;2024-03-08T03:20:33;27.80;;;17.83;;
75358;SDS011;64046;51.978;5.934;2024-03-08T03:23:08;27.27;;;15.30;;
75358;SDS011;64046;51.978;5.934;2024-03-08T03:25:40;33.55;;;17.63;;
75358;SDS011;64046;51.978;5.934;2024-03-08T03:28:09;28.02;;;15.32;;
75358;SDS011;64046;51.978;5.934;2024-03-08T03:30:40;25.05;;;15.70;;
75358;SDS011;64046;51.978;5.934;2024-03-08T03:33:09;23.30;;;14.45;;
75358;SDS011;64046;51.978;5.934;2024-03-08T03:35:40;21.52;;;14.95;;
75358;SDS011;64046;51.978;5.934;2024-03-08T03:38:13;25.75;;;16.23;;
75358;SDS011;64046;51.978;5.934;2024-03-08T03:40:42;27.25;;;16.08;;
75358;SDS011;64046;51.978;5.934;2024-03-08T03:43:12;24.10;;;15.27;;
75358;SDS011;64046;51.978;5.934;2024-03-08T03:45:41;27.27;;;15.27;;
75358;SDS011;64046;51.978;5.934;2024-03-08T03:48:10;23.20;;;14.27;;
75358;SDS011;64046;51.978;5.934;2024-03-08T03:50:40;23.90;;;15.70;;
75358;SDS011;64046;51.978;5.934;2024-03-08T03:53:10;24.15;;;15.65;;
75358;SDS011;64046;51.978;5.934;2024-03-08T03:55:42;22.00;;;15.00;;
75358;SDS011;64046;51.978;5.934;2024-03-08T03:58:12;25.55;;;15.75;;
75358;SDS011;64046;51.978;5.934;2024-03-08T04:00:41;23.10;;;14.57;;
75358;SDS011;64046;51.978;5.934;2024-03-08T04:03:11;26.70;;;16.65;;
75358;SDS011;64046;51.978;5.934;2024-03-08T04:05:40;30.90;;;18.35;;
75358;SDS011;64046;51.978;5.934;2024-03-08T04:08:09;28.10;;;16.80;;
75358;SDS011;64046;51.978;5.934;2024-03-08T04:10:41;25.40;;;15.25;;
75358;SDS011;64046;51.978;5.934;2024-03-08T04:13:11;30.77;;;16.52;;
75358;SDS011;64046;51.978;5.934;2024-03-08T04:15:41;29.48;;;17.20;;
75358;SDS011;64046;51.978;5.934;2024-03-08T04:18:14;22.83;;;15.50;;
75358;SDS011;64046;51.978;5.934;2024-03-08T04:20:44;25.75;;;15.70;;
75358;SDS011;64046;51.978;5.934;2024-03-08T04:23:13;29.25;;;17.15;;
75358;SDS011;64046;51.978;5.934;2024-03-08T04:25:46;29.25;;;16.65;;
75358;SDS011;64046;51.978;5.934;2024-03-08T04:28:15;27.00;;;15.85;;
75358;SDS011;64046;51.978;5.934;2024-03-08T04:30:44;27.35;;;17.25;;
75358;SDS011;64046;51.978;5.934;2024-03-08T04:33:14;23.85;;;14.90;;
75358;SDS011;64046;51.978;5.934;2024-03-08T04:35:44;31.13;;;17.02;;
75358;SDS011;64046;51.978;5.934;2024-03-08T04:38:14;26.98;;;16.40;;
75358;SDS011;64046;51.978;5.934;2024-03-08T04:40:46;24.60;;;15.60;;
75358;SDS011;64046;51.978;5.934;2024-03-08T04:43:16;26.75;;;16.33;;
75358;SDS011;64046;51.978;5.934;2024-03-08T04:45:46;29.45;;;16.00;;
75358;SDS011;64046;51.978;5.934;2024-03-08T04:48:15;26.33;;;15.75;;
75358;SDS011;64046;51.978;5.934;2024-03-08T04:50:45;28.00;;;15.63;;
75358;SDS011;64046;51.978;5.934;2024-03-08T04:53:15;28.30;;;16.92;;
75358;SDS011;64046;51.978;5.934;2024-03-08T04:55:47;25.95;;;16.65;;
75358;SDS011;64046;51.978;5.934;2024-03-08T04:58:16;24.75;;;16.85;;
75358;SDS011;64046;51.978;5.934;2024-03-08T05:00:46;32.40;;;17.38;;
75358;SDS011;64046;51.978;5.934;2024-03-08T05:03:16;26.25;;;16.40;;
75358;SDS011;64046;51.978;5.934;2024-03-08T05:05:47;31.67;;;18.10;;
75358;SDS011;64046;51.978;5.934;2024-03-08T05:08:16;28.60;;;17.52;;
75358;SDS011;64046;51.978;5.934;2024-03-08T05:10:48;25.30;;;16.13;;
75358;SDS011;64046;51.978;5.934;2024-03-08T05:13:17;26.40;;;15.63;;
75358;SDS011;64046;51.978;5.934;2024-03-08T05:15:48;27.88;;;17.52;;
75358;SDS011;64046;51.978;5.934;2024-03-08T05:18:18;32.38;;;19.15;;
75358;SDS011;64046;51.978;5.934;2024-03-08T05:20:47;27.25;;;16.38;;
75358;SDS011;64046;51.978;5.934;2024-03-08T05:23:17;27.23;;;16.60;;
75358;SDS011;64046;51.978;5.934;2024-03-08T05:25:50;25.35;;;15.82;;
75358;SDS011;64046;51.978;5.934;2024-03-08T05:28:20;27.05;;;16.77;;
75358;SDS011;64046;51.978;5.934;2024-03-08T05:30:49;26.70;;;15.77;;
75358;SDS011;64046;51.978;5.934;2024-03-08T05:33:18;27.55;;;16.35;;
75358;SDS011;64046;51.978;5.934;2024-03-08T05:35:49;30.23;;;17.25;;
75358;SDS011;64046;51.978;5.934;2024-03-08T05:38:19;26.20;;;15.65;;
75358;SDS011;64046;51.978;5.934;2024-03-08T05:40:51;28.80;;;17.75;;
75358;SDS011;64046;51.978;5.934;2024-03-08T05:43:21;26.80;;;16.40;;
75358;SDS011;64046;51.978;5.934;2024-03-08T05:45:50;28.90;;;16.92;;
75358;SDS011;64046;51.978;5.934;2024-03-08T05:48:20;28.05;;;16.95;;
75358;SDS011;64046;51.978;5.934;2024-03-08T05:50:50;26.00;;;15.88;;
75358;SDS011;64046;51.978;5.934;2024-03-08T05:53:19;26.50;;;16.73;;
75358;SDS011;64046;51.978;5.934;2024-03-08T05:55:51;27.13;;;16.70;;
75358;SDS011;64046;51.978;5.934;2024-03-08T05:58:21;29.63;;;17.95;;
75358;SDS011;64046;51.978;5.934;2024-03-08T06:00:50;28.65;;;17.30;;
75358;SDS011;64046;51.978;5.934;2024-03-08T06:03:19;26.02;;;16.13;;
75358;SDS011;64046;51.978;5.934;2024-03-08T06:05:49;28.10;;;17.15;;
75358;SDS011;64046;51.978;5.934;2024-03-08T06:08:18;30.38;;;18.75;;
75358;SDS011;64046;51.978;5.934;2024-03-08T06:10:49;24.83;;;16.35;;
75358;SDS011;64046;51.978;5.934;2024-03-08T06:13:21;29.60;;;18.73;;
75358;SDS011;64046;51.978;5.934;2024-03-08T06:15:50;32.95;;;18.58;;
75358;SDS011;64046;51.978;5.934;2024-03-08T06:18:19;27.52;;;16.45;;
75358;SDS011;64046;51.978;5.934;2024-03-08T06:20:49;28.00;;;17.58;;
75358;SDS011;64046;51.978;5.934;2024-03-08T06:23:19;28.10;;;16.40;;
75358;SDS011;64046;51.978;5.934;2024-03-08T06:25:48;32.92;;;18.83;;
75358;SDS011;64046;51.978;5.934;2024-03-08T06:28:20;26.08;;;16.88;;
75358;SDS011;64046;51.978;5.934;2024-03-08T06:30:49;30.63;;;17.67;;
75358;SDS011;64046;51.978;5.934;2024-03-08T06:33:19;29.67;;;16.92;;
75358;SDS011;64046;51.978;5.934;2024-03-08T06:35:48;28.70;;;17.15;;
75358;SDS011;64046;51.978;5.934;2024-03-08T06:38:17;29.85;;;15.60;;
75358;SDS011;64046;51.978;5.934;2024-03-08T06:40:47;29.52;;;16.90;;
75358;SDS011;64046;51.978;5.934;2024-03-08T06:43:20;32.50;;;18.58;;
75358;SDS011;64046;51.978;5.934;2024-03-08T06:45:51;29.15;;;17.73;;
75358;SDS011;64046;51.978;5.934;2024-03-08T06:48:20;31.73;;;18.80;;
75358;SDS011;64046;51.978;5.934;2024-03-08T06:50:49;30.55;;;18.90;;
75358;SDS011;64046;51.978;5.934;2024-03-08T06:53:18;32.65;;;18.42;;
75358;SDS011;64046;51.978;5.934;2024-03-08T06:55:48;35.28;;;19.60;;
75358;SDS011;64046;51.978;5.934;2024-03-08T06:58:20;32.55;;;18.75;;
75358;SDS011;64046;51.978;5.934;2024-03-08T07:00:49;28.90;;;18.02;;
75358;SDS011;64046;51.978;5.934;2024-03-08T07:03:19;34.08;;;19.90;;
75358;SDS011;64046;51.978;5.934;2024-03-08T07:05:48;33.65;;;18.45;;
75358;SDS011;64046;51.978;5.934;2024-03-08T07:08:18;29.38;;;17.30;;
75358;SDS011;64046;51.978;5.934;2024-03-08T07:10:48;29.63;;;17.98;;
75358;SDS011;64046;51.978;5.934;2024-03-08T07:13:20;27.42;;;16.15;;
75358;SDS011;64046;51.978;5.934;2024-03-08T07:15:50;29.23;;;16.90;;
75358;SDS011;64046;51.978;5.934;2024-03-08T07:18:19;33.80;;;20.05;;
75358;SDS011;64046;51.978;5.934;2024-03-08T07:20:48;30.83;;;18.23;;
75358;SDS011;64046;51.978;5.934;2024-03-08T07:23:18;29.88;;;18.60;;
75358;SDS011;64046;51.978;5.934;2024-03-08T07:25:59;30.13;;;19.13;;
75358;SDS011;64046;51.978;5.934;2024-03-08T07:28:32;33.03;;;19.88;;
75358;SDS011;64046;51.978;5.934;2024-03-08T07:31:01;27.33;;;17.42;;
75358;SDS011;64046;51.978;5.934;2024-03-08T07:33:43;33.05;;;19.17;;
75358;SDS011;64046;51.978;5.934;2024-03-08T07:36:12;29.00;;;18.35;;
75358;SDS011;64046;51.978;5.934;2024-03-08T07:38:42;31.48;;;19.27;;
75358;SDS011;64046;51.978;5.934;2024-03-08T07:41:12;28.50;;;18.55;;
75358;SDS011;64046;51.978;5.934;2024-03-08T07:43:44;28.10;;;18.23;;
75358;SDS011;64046;51.978;5.934;2024-03-08T07:46:14;32.70;;;19.67;;
75358;SDS011;64046;51.978;5.934;2024-03-08T07:48:44;32.42;;;19.23;;
75358;SDS011;64046;51.978;5.934;2024-03-08T07:51:15;32.83;;;18.38;;
75358;SDS011;64046;51.978;5.934;2024-03-08T07:53:45;31.83;;;18.55;;
75358;SDS011;64046;51.978;5.934;2024-03-08T07:56:15;34.92;;;19.80;;
75358;SDS011;64046;51.978;5.934;2024-03-08T07:58:47;31.38;;;19.38;;
75358;SDS011;64046;51.978;5.934;2024-03-08T08:01:17;33.05;;;17.83;;
75358;SDS011;64046;51.978;5.934;2024-03-08T08:03:46;29.60;;;18.77;;
75358;SDS011;64046;51.978;5.934;2024-03-08T08:06:16;33.38;;;19.58;;
75358;SDS011;64046;51.978;5.934;2024-03-08T08:08:45;30.13;;;17.27;;
75358;SDS011;64046;51.978;5.934;2024-03-08T08:11:15;31.58;;;19.98;;
75358;SDS011;64046;51.978;5.934;2024-03-08T08:13:48;30.65;;;19.23;;
75358;SDS011;64046;51.978;5.934;2024-03-08T08:16:18;32.03;;;19.70;;
75358;SDS011;64046;51.978;5.934;2024-03-08T08:18:47;34.95;;;20.75;;
75358;SDS011;64046;51.978;5.934;2024-03-08T08:21:16;36.25;;;21.42;;
75358;SDS011;64046;51.978;5.934;2024-03-08T08:23:48;33.45;;;20.77;;
75358;SDS011;64046;51.978;5.934;2024-03-08T08:26:17;32.25;;;20.25;;
75358;SDS011;64046;51.978;5.934;2024-03-08T08:28:49;29.10;;;18.17;;
75358;SDS011;64046;51.978;5.934;2024-03-08T08:31:19;34.63;;;20.67;;
75358;SDS011;64046;51.978;5.934;2024-03-08T08:33:48;32.00;;;19.73;;
75358;SDS011;64046;51.978;5.934;2024-03-08T08:36:22;31.35;;;19.27;;
75358;SDS011;64046;51.978;5.934;2024-03-08T08:38:51;33.92;;;19.65;;
75358;SDS011;64046;51.978;5.934;2024-03-08T08:41:22;37.20;;;20.77;;
75358;SDS011;64046;51.978;5.934;2024-03-08T08:43:55;34.95;;;20.58;;
75358;SDS011;64046;51.978;5.934;2024-03-08T08:46:24;32.35;;;19.98;;
75358;SDS011;64046;51.978;5.934;2024-03-08T08:48:54;32.50;;;19.48;;
75358;SDS011;64046;51.978;5.934;2024-03-08T08:51:24;35.35;;;19.58;;
75358;SDS011;64046;51.978;5.934;2024-03-08T08:53:54;31.15;;;19.65;;
75358;SDS011;64046;51.978;5.934;2024-03-08T08:56:23;33.95;;;18.05;;
75358;SDS011;64046;51.978;5.934;2024-03-08T08:58:57;31.88;;;19.98;;
75358;SDS011;64046;51.978;5.934;2024-03-08T09:01:26;36.72;;;20.23;;
75358;SDS011;64046;51.978;5.934;2024-03-08T09:03:55;32.53;;;18.55;;
75358;SDS011;64046;51.978;5.934;2024-03-08T09:06:25;33.35;;;21.92;;
75358;SDS011;64046;51.978;5.934;2024-03-08T09:08:55;31.60;;;18.75;;
75358;SDS011;64046;51.978;5.934;2024-03-08T09:11:25;30.50;;;19.13;;
75358;SDS011;64046;51.978;5.934;2024-03-08T09:13:58;34.78;;;20.60;;
75358;SDS011;64046;51.978;5.934;2024-03-08T09:16:27;32.80;;;20.25;;
75358;SDS011;64046;51.978;5.934;2024-03-08T09:18:59;34.47;;;20.50;;
75358;SDS011;64046;51.978;5.934;2024-03-08T09:21:28;38.13;;;22.02;;
75358;SDS011;64046;51.978;5.934;2024-03-08T09:23:57;33.63;;;17.70;;
75358;SDS011;64046;51.978;5.934;2024-03-08T09:26:30;32.05;;;18.65;;
75358;SDS011;64046;51.978;5.934;2024-03-08T09:29:02;30.95;;;19.00;;
75358;SDS011;64046;51.978;5.934;2024-03-08T09:31:33;37.47;;;22.17;;
75358;SDS011;64046;51.978;5.934;2024-03-08T09:34:04;32.78;;;18.98;;
75358;SDS011;64046;51.978;5.934;2024-03-08T09:36:34;32.97;;;21.65;;
75358;SDS011;64046;51.978;5.934;2024-03-08T09:39:03;33.08;;;20.15;;
75358;SDS011;64046;51.978;5.934;2024-03-08T09:41:33;29.15;;;18.42;;
75358;SDS011;64046;51.978;5.934;2024-03-08T09:44:06;28.65;;;18.30;;
75358;SDS011;64046;51.978;5.934;2024-03-08T09:46:35;30.67;;;19.05;;
75358;SDS011;64046;51.978;5.934;2024-03-08T09:49:05;36.78;;;20.92;;
75358;SDS011;64046;51.978;5.934;2024-03-08T09:51:37;36.58;;;19.23;;
75358;SDS011;64046;51.978;5.934;2024-03-08T09:54:07;29.58;;;17.95;;
75358;SDS011;64046;51.978;5.934;2024-03-08T09:56:39;27.65;;;17.35;;
75358;SDS011;64046;51.978;5.934;2024-03-08T09:59:12;27.27;;;17.23;;
75358;SDS011;64046;51.978;5.934;2024-03-08T10:01:54;30.85;;;17.77;;
75358;SDS011;64046;51.978;5.934;2024-03-08T10:04:25;29.45;;;17.92;;
75358;SDS011;64046;51.978;5.934;2024-03-08T10:06:57;28.88;;;18.88;;
75358;SDS011;64046;51.978;5.934;2024-03-08T10:09:30;30.63;;;18.90;;
75358;SDS011;64046;51.978;5.934;2024-03-08T10:11:59;29.33;;;18.08;;
75358;SDS011;64046;51.978;5.934;2024-03-08T10:14:31;30.55;;;18.63;;
75358;SDS011;64046;51.978;5.934;2024-03-08T10:17:01;28.75;;;17.67;;
75358;SDS011;64046;51.978;5.934;2024-03-08T10:19:33;29.48;;;17.50;;
75358;SDS011;64046;51.978;5.934;2024-03-08T10:22:02;27.15;;;16.23;;
75358;SDS011;64046;51.978;5.934;2024-03-08T10:24:32;33.05;;;18.42;;
75358;SDS011;64046;51.978;5.934;2024-03-08T10:27:02;29.85;;;18.67;;
75358;SDS011;64046;51.978;5.934;2024-03-08T10:29:37;23.95;;;15.52;;
75358;SDS011;64046;51.978;5.934;2024-03-08T10:32:10;27.27;;;16.45;;
75358;SDS011;64046;51.978;5.934;2024-03-08T10:34:39;24.45;;;16.75;;
75358;SDS011;64046;51.978;5.934;2024-03-08T10:37:10;24.55;;;15.50;;
75358;SDS011;64046;51.978;5.934;2024-03-08T10:39:45;25.27;;;16.23;;
75358;SDS011;64046;51.978;5.934;2024-03-08T10:42:22;33.40;;;18.77;;
75358;SDS011;64046;51.978;5.934;2024-03-08T10:45:02;27.48;;;17.55;;
75358;SDS011;64046;51.978;5.934;2024-03-08T10:47:40;28.58;;;18.23;;
75358;SDS011;64046;51.978;5.934;2024-03-08T10:50:10;26.40;;;16.50;;
75358;SDS011;64046;51.978;5.934;2024-03-08T10:52:48;25.25;;;15.52;;
75358;SDS011;64046;51.978;5.934;2024-03-08T10:55:19;28.73;;;17.40;;
75358;SDS011;64046;51.978;5.934;2024-03-08T10:57:48;29.00;;;17.73;;
75358;SDS011;64046;51.978;5.934;2024-03-08T11:00:20;24.63;;;15.65;;
75358;SDS011;64046;51.978;5.934;2024-03-08T11:02:53;29.02;;;16.60;;
75358;SDS011;64046;51.978;5.934;2024-03-08T11:05:32;25.35;;;14.98;;
75358;SDS011;64046;51.978;5.934;2024-03-08T11:08:15;25.80;;;15.85;;
75358;SDS011;64046;51.978;5.934;2024-03-08T11:10:47;27.40;;;16.48;;
75358;SDS011;64046;51.978;5.934;2024-03-08T11:13:32;21.45;;;15.73;;
75358;SDS011;64046;51.978;5.934;2024-03-08T11:16:09;23.02;;;15.45;;
75358;SDS011;64046;51.978;5.934;2024-03-08T11:18:42;25.75;;;15.43;;
75358;SDS011;64046;51.978;5.934;2024-03-08T11:21:11;24.00;;;15.23;;
75358;SDS011;64046;51.978;5.934;2024-03-08T11:23:41;29.02;;;15.95;;
75358;SDS011;64046;51.978;5.934;2024-03-08T11:26:17;22.17;;;14.48;;
75358;SDS011;64046;51.978;5.934;2024-03-08T11:28:47;21.10;;;14.60;;
75358;SDS011;64046;51.978;5.934;2024-03-08T11:31:24;22.10;;;14.13;;
75358;SDS011;64046;51.978;5.934;2024-03-08T11:33:57;25.45;;;14.68;;
75358;SDS011;64046;51.978;5.934;2024-03-08T11:36:26;21.85;;;13.10;;
75358;SDS011;64046;51.978;5.934;2024-03-08T11:38:58;21.33;;;13.95;;
75358;SDS011;64046;51.978;5.934;2024-03-08T11:41:35;22.90;;;14.00;;
75358;SDS011;64046;51.978;5.934;2024-03-08T11:44:05;24.23;;;14.60;;
75358;SDS011;64046;51.978;5.934;2024-03-08T11:46:40;24.13;;;14.32;;
75358;SDS011;64046;51.978;5.934;2024-03-08T11:49:13;23.95;;;15.88;;
75358;SDS011;64046;51.978;5.934;2024-03-08T11:51:43;22.75;;;14.18;;
75358;SDS011;64046;51.978;5.934;2024-03-08T11:54:13;19.60;;;12.52;;
75358;SDS011;64046;51.978;5.934;2024-03-08T11:56:42;24.48;;;14.25;;
75358;SDS011;64046;51.978;5.934;2024-03-08T11:59:13;19.38;;;11.63;;
75358;SDS011;64046;51.978;5.934;2024-03-08T12:01:47;16.15;;;10.80;;
75358;SDS011;64046;51.978;5.934;2024-03-08T12:04:27;24.17;;;12.20;;
75358;SDS011;64046;51.978;5.934;2024-03-08T12:06:58;20.25;;;12.68;;
75358;SDS011;64046;51.978;5.934;2024-03-08T12:09:35;17.70;;;11.70;;
75358;SDS011;64046;51.978;5.934;2024-03-08T12:12:06;23.77;;;13.75;;
75358;SDS011;64046;51.978;5.934;2024-03-08T12:14:37;20.77;;;12.55;;
75358;SDS011;64046;51.978;5.934;2024-03-08T12:17:10;20.35;;;12.82;;
75358;SDS011;64046;51.978;5.934;2024-03-08T12:19:40;22.20;;;14.82;;
75358;SDS011;64046;51.978;5.934;2024-03-08T12:22:09;20.60;;;13.10;;
75358;SDS011;64046;51.978;5.934;2024-03-08T12:24:38;20.92;;;13.50;;
75358;SDS011;64046;51.978;5.934;2024-03-08T12:27:17;23.52;;;14.05;;
75358;SDS011;64046;51.978;5.934;2024-03-08T12:29:47;19.98;;;12.82;;
75358;SDS011;64046;51.978;5.934;2024-03-08T12:32:19;20.63;;;12.95;;
75358;SDS011;64046;51.978;5.934;2024-03-08T12:34:51;23.08;;;13.70;;
75358;SDS011;64046;51.978;5.934;2024-03-08T12:37:21;20.15;;;12.45;;
75358;SDS011;64046;51.978;5.934;2024-03-08T12:39:53;21.00;;;12.82;;
75358;SDS011;64046;51.978;5.934;2024-03-08T12:42:24;20.30;;;12.85;;
75358;SDS011;64046;51.978;5.934;2024-03-08T12:44:54;23.00;;;13.65;;
75358;SDS011;64046;51.978;5.934;2024-03-08T12:47:30;21.38;;;14.07;;
75358;SDS011;64046;51.978;5.934;2024-03-08T12:49:59;23.02;;;13.98;;
75358;SDS011;64046;51.978;5.934;2024-03-08T12:52:29;23.75;;;14.30;;
75358;SDS011;64046;51.978;5.934;2024-03-08T12:55:00;19.95;;;12.90;;
75358;SDS011;64046;51.978;5.934;2024-03-08T12:57:33;20.40;;;13.27;;
75358;SDS011;64046;51.978;5.934;2024-03-08T13:00:04;22.35;;;13.88;;
75358;SDS011;64046;51.978;5.934;2024-03-08T13:02:42;19.00;;;12.55;;
75358;SDS011;64046;51.978;5.934;2024-03-08T13:05:11;21.15;;;13.48;;
75358;SDS011;64046;51.978;5.934;2024-03-08T13:07:40;23.77;;;15.23;;
75358;SDS011;64046;51.978;5.934;2024-03-08T13:10:12;24.23;;;14.23;;
75358;SDS011;64046;51.978;5.934;2024-03-08T13:12:46;22.73;;;13.40;;
75358;SDS011;64046;51.978;5.934;2024-03-08T13:15:15;23.85;;;15.05;;
75358;SDS011;64046;51.978;5.934;2024-03-08T13:17:49;21.30;;;13.68;;
75358;SDS011;64046;51.978;5.934;2024-03-08T13:20:18;22.08;;;14.35;;
75358;SDS011;64046;51.978;5.934;2024-03-08T13:22:49;24.92;;;14.50;;
75358;SDS011;64046;51.978;5.934;2024-03-08T13:25:18;26.33;;;16.08;;
75358;SDS011;64046;51.978;5.934;2024-03-08T13:27:48;21.63;;;14.15;;
75358;SDS011;64046;51.978;5.934;2024-03-08T13:30:19;28.23;;;16.10;;
75358;SDS011;64046;51.978;5.934;2024-03-08T13:32:54;24.60;;;14.73;;
75358;SDS011;64046;51.978;5.934;2024-03-08T13:35:23;21.77;;;14.40;;
75358;SDS011;64046;51.978;5.934;2024-03-08T13:37:56;30.92;;;14.00;;
75358;SDS011;64046;51.978;5.934;2024-03-08T13:40:26;21.08;;;13.77;;
75358;SDS011;64046;51.978;5.934;2024-03-08T13:43:03;21.48;;;13.32;;
75358;SDS011;64046;51.978;5.934;2024-03-08T13:45:33;22.85;;;14.25;;
75358;SDS011;64046;51.978;5.934;2024-03-08T13:48:08;23.95;;;13.15;;
75358;SDS011;64046;51.978;5.934;2024-03-08T13:50:39;19.98;;;13.18;;
75358;SDS011;64046;51.978;5.934;2024-03-08T13:53:08;19.10;;;13.27;;
75358;SDS011;64046;51.978;5.934;2024-03-08T13:55:38;26.52;;;14.73;;
75358;SDS011;64046;51.978;5.934;2024-03-08T13:58:09;22.20;;;14.43;;
75358;SDS011;64046;51.978;5.934;2024-03-08T14:00:40;22.23;;;14.50;;
75358;SDS011;64046;51.978;5.934;2024-03-08T14:03:14;22.98;;;12.93;;
75358;SDS011;64046;51.978;5.934;2024-03-08T14:05:44;23.35;;;15.02;;
75358;SDS011;64046;51.978;5.934;2024-03-08T14:08:13;22.25;;;14.85;;
75358;SDS011;64046;51.978;5.934;2024-03-08T14:10:43;22.08;;;13.88;;
75358;SDS011;64046;51.978;5.934;2024-03-08T14:13:12;21.73;;;14.05;;
75358;SDS011;64046;51.978;5.934;2024-03-08T14:15:44;20.23;;;13.23;;
75358;SDS011;64046;51.978;5.934;2024-03-08T14:18:17;21.13;;;13.48;;
75358;SDS011;64046;51.978;5.934;2024-03-08T14:20:46;22.88;;;13.73;;
75358;SDS011;64046;51.978;5.934;2024-03-08T14:23:17;25.98;;;15.40;;
75358;SDS011;64046;51.978;5.934;2024-03-08T14:25:48;21.55;;;13.30;;
75358;SDS011;64046;51.978;5.934;2024-03-08T14:28:20;19.50;;;13.13;;
75358;SDS011;64046;51.978;5.934;2024-03-08T14:30:52;23.75;;;14.50;;
75358;SDS011;64046;51.978;5.934;2024-03-08T14:33:24;20.65;;;13.82;;
75358;SDS011;64046;51.978;5.934;2024-03-08T14:35:54;21.70;;;14.48;;
75358;SDS011;64046;51.978;5.934;2024-03-08T14:38:23;22.58;;;15.10;;
75358;SDS011;64046;51.978;5.934;2024-03-08T14:40:53;25.27;;;14.52;;
75358;SDS011;64046;51.978;5.934;2024-03-08T14:43:22;22.02;;;14.25;;